Niceville, FL (32578)

5:35 AM CDT on September 16, 2014 (GMT -0500)
Portland | Change Station
CLOSE
Current Station
Personal Weather Station
Location: Freeport, FL
Elevation: 42 ft
Nearby Weather Stations

Elev 42 ft 30.52 °N, 86.21 °W | Updated 15 seconds ago

Partly Cloudy
Partly Cloudy
74.6 °F
Feels Like 73 °F
N
0.0
Wind Variable Wind from NNE
Gusts 0.0 mph

Today
High -- | Low -- °F
--% Chance of Precip.
Yesterday
High -- | Low -- °F
Precip. -- in
6:30 AM 6:49 PM
Waning Gibbous, 47% visible
Pressure 30.05 in
Visibility 10.0 miles
Clouds Few 1400 ft
Scattered Clouds 2400 ft
Overcast 4400 ft
Heat Index 73 °F
Dew Point 72 °F
Humidity 93%
Rainfall 0.01 in
Snow Depth Not available.
UV 0.0 out of 12
Pollen 8.30 out of 12
Air Quality Not available.
Flu Activity Not available.
SPECI KDTS 161011Z AUTO 00000KT 10SM FEW014 SCT024 OVC044 27/24 A3005 RMK AO2 T02720244 TSNO

More Conditions Fewer Conditions

Pressure 30.05 in
Visibility 10.0 miles
Clouds Few 1400 ft
Scattered Clouds 2400 ft
Overcast 4400 ft
Heat Index 73 °F
Dew Point 72 °F
Humidity 93%
Rainfall 0.01 in
Snow Depth Not available.
UV 0.0 out of 12
Pollen 8.30 out of 12
Air Quality Not available.
Flu Activity Not available.
SPECI KDTS 161011Z AUTO 00000KT 10SM FEW014 SCT024 OVC044 27/24 A3005 RMK AO2 T02720244 TSNO

More Conditions Fewer Conditions

10-Day Weather Forecast

Almanac

Astronomy

Sep. 16, 2014 Rise Set
Actual Time 6:30 AM CDT 6:49 PM CDT
Civil Twilight 6:06 AM CDT 7:13 PM CDT
Nautical Twilight 5:37 AM CDT 7:41 PM CDT
Astronomical Twilight 5:09 AM CDT 8:10 PM CDT
Moon No Moon Rise 1:55 PM CDT
Length of Visible Light 13h 07m
Length of Day
12h 19m
Tomorrow will be 1m 50s shorter.
Waning Gibbous, 47% of the Moon is Illuminated
Today
Waning Gibbous
Sep 24
New
Oct 1
First Quarter
Oct 8
Full
Oct 15
Last Quarter

Today's Extremes

State Highs State Lows

Community

WunderPhotos

Upload Photos

1,753,720 photos uploaded!

WunderBlogs® & News

Nearby

Air Quality

  Air Quality AQ Index Pollutant
Yesterday Good
PM2.5
Tuesday Good
OZONE
Tuesday Good
PM2.5

Snow Depth

Station Depth Elevation
No new snow has been reported.

Earthquake Activity

City Distance Mag. Time & Date
No recent earthquake activity has been reported nearby.
Minimum magnitude displayed is 2.5.

Coastal Water Temperatures

Place Temperature
No Stations Reporting

Nearby Weather Stations